Time;durP1;ratioP1;P1;durP2;ratioP2;P2;SDS_P1;SDS_P2;PMS_P1;PMS_P2;Temp;Humidity;BMP_temperature;BMP_pressure;BME280_temperature;BME280_humidity;BME280_pressure;Samples;Min_cycle;Max_cycle;Signal;HPM_P1;HPM_P2
2021/01/02 00:01:18;;;;;;;16.53;12.30;;;6.00;41.80;;;;;;5010261;28;20173;-66
2021/01/02 00:04:00;;;;;;;15.33;13.53;;;6.20;41.00;;;;;;5010246;28;20436;-66
2021/01/02 00:06:31;;;;;;;12.87;11.43;;;6.20;41.30;;;;;;5010566;28;20408;-66
2021/01/02 00:09:08;;;;;;;13.30;11.90;;;6.30;40.80;;;;;;5009320;28;20467;-66
2021/01/02 00:11:46;;;;;;;13.60;12.23;;;6.20;40.90;;;;;;5010142;28;20411;-66
2021/01/02 00:14:50;;;;;;;12.93;11.60;;;6.30;40.90;;;;;;5010264;28;20511;-66
2021/01/02 00:17:34;;;;;;;13.03;11.73;;;6.20;40.50;;;;;;5006495;28;20867;-66
2021/01/02 00:20:24;;;;;;;13.87;12.47;;;6.30;40.90;;;;;;5010046;28;20423;-66
2021/01/02 00:22:58;;;;;;;14.90;12.43;;;6.20;40.80;;;;;;5009670;28;20404;-66
2021/01/02 00:25:28;;;;;;;12.47;11.10;;;6.20;41.30;;;;;;5009710;28;20450;-66
2021/01/02 00:28:23;;;;;;;13.40;12.00;;;6.30;40.10;;;;;;5009740;28;20408;-66
2021/01/02 00:31:05;;;;;;;14.87;12.77;;;6.30;40.60;;;;;;5009811;28;20422;-66
2021/01/02 00:34:01;;;;;;;13.57;12.30;;;6.30;40.60;;;;;;5009645;28;20399;-66
2021/01/02 00:36:48;;;;;;;12.53;11.23;;;6.00;41.10;;;;;;5009899;28;20406;-66
2021/01/02 00:39:35;;;;;;;9.90;8.90;;;6.10;41.40;;;;;;5009875;28;20413;-67
2021/01/02 00:42:02;;;;;;;11.43;9.40;;;6.10;40.50;;;;;;5009607;28;20447;-66
2021/01/02 00:44:30;;;;;;;10.97;8.63;;;6.20;39.40;;;;;;5009705;28;20426;-66
2021/01/02 00:46:58;;;;;;;10.07;9.17;;;6.20;39.40;;;;;;5009577;28;20788;-66
2021/01/02 00:49:29;;;;;;;9.90;8.50;;;6.00;40.10;;;;;;5009640;28;20471;-66
2021/01/02 00:52:19;;;;;;;9.20;8.17;;;6.00;40.30;;;;;;5009353;28;20440;-66
2021/01/02 00:55:03;;;;;;;11.10;10.00;;;6.10;40.00;;;;;;5009448;28;20833;-67
2021/01/02 00:58:06;;;;;;;12.03;10.37;;;6.10;39.90;;;;;;5009845;28;20421;-66
2021/01/02 01:00:37;;;;;;;9.10;8.20;;;6.10;40.90;;;;;;5009138;28;20848;-66
2021/01/02 01:03:36;;;;;;;9.77;8.83;;;6.10;39.90;;;;;;5009505;28;20499;-66
2021/01/02 01:06:05;;;;;;;12.20;10.87;;;5.80;40.70;;;;;;5009632;28;20415;-67
2021/01/02 01:08:34;;;;;;;12.03;10.83;;;6.10;41.00;;;;;;5008842;28;20514;-66
2021/01/02 01:11:12;;;;;;;11.73;10.43;;;6.20;40.70;;;;;;5009181;28;20871;-66
2021/01/02 01:13:40;;;;;;;12.87;10.83;;;6.20;40.50;;;;;;5009123;28;20799;-67
2021/01/02 01:16:07;;;;;;;11.37;10.20;;;6.20;40.50;;;;;;5009274;28;20411;-66
2021/01/02 01:18:57;;;;;;;13.23;11.90;;;6.10;40.30;;;;;;5009105;28;20723;-66
2021/01/02 01:21:27;;;;;;;10.60;9.40;;;5.90;41.00;;;;;;5012403;28;20495;-66
2021/01/02 01:24:09;;;;;;;11.10;9.80;;;6.00;40.90;;;;;;5013428;28;20817;-66
2021/01/02 01:26:43;;;;;;;12.10;10.90;;;6.10;40.50;;;;;;5013333;28;20818;-67
2021/01/02 01:29:37;;;;;;;13.00;11.70;;;6.10;40.60;;;;;;5012696;28;20475;-66
2021/01/02 01:32:06;;;;;;;13.30;11.47;;;6.10;41.50;;;;;;5009164;28;20431;-66
2021/01/02 01:34:33;;;;;;;14.07;12.63;;;6.20;42.30;;;;;;5012985;28;20456;-66
2021/01/02 01:37:04;;;;;;;13.87;12.27;;;6.20;42.30;;;;;;5012725;28;20412;-66
2021/01/02 01:39:32;;;;;;;14.40;12.90;;;6.10;41.60;;;;;;5013063;28;20418;-66
2021/01/02 01:42:00;;;;;;;16.40;14.07;;;6.10;42.50;;;;;;5013009;28;20419;-66
2021/01/02 01:44:42;;;;;;;14.20;12.80;;;6.00;43.20;;;;;;5012484;28;20804;-66
2021/01/02 01:47:17;;;;;;;15.93;14.33;;;6.00;42.90;;;;;;5012920;28;20408;-67
2021/01/02 01:49:57;;;;;;;16.40;14.20;;;6.10;42.40;;;;;;5012826;28;20458;-66
2021/01/02 01:53:04;;;;;;;15.57;13.90;;;6.10;44.00;;;;;;5012619;28;20400;-66
2021/01/02 01:55:43;;;;;;;15.83;13.70;;;6.00;43.10;;;;;;5012773;28;20526;-66
2021/01/02 01:58:11;;;;;;;14.70;13.30;;;6.00;43.20;;;;;;5012266;28;20412;-66
2021/01/02 02:00:50;;;;;;;16.27;14.50;;;5.90;43.00;;;;;;5012863;28;20770;-66
2021/01/02 02:03:23;;;;;;;16.17;13.47;;;5.80;44.20;;;;;;5012545;28;20958;-66
2021/01/02 02:05:52;;;;;;;14.73;13.23;;;5.80;44.20;;;;;;5012452;28;20423;-66
2021/01/02 02:08:30;;;;;;;14.60;13.00;;;5.80;44.20;;;;;;5012382;28;20409;-67
2021/01/02 02:11:04;;;;;;;14.77;13.27;;;5.80;44.20;;;;;;5012855;28;20413;-66
2021/01/02 02:13:35;;;;;;;14.00;12.60;;;5.70;44.40;;;;;;5012053;28;20444;-66
2021/01/02 02:16:09;;;;;;;15.47;13.97;;;5.60;44.10;;;;;;5012536;28;20423;-66
2021/01/02 02:18:42;;;;;;;15.87;14.27;;;5.80;44.00;;;;;;5012190;28;20412;-66
2021/01/02 02:21:10;;;;;;;14.70;13.13;;;5.80;43.20;;;;;;5012112;28;20477;-66
2021/01/02 02:23:46;;;;;;;15.87;14.37;;;5.80;43.50;;;;;;5012151;28;20427;-66
2021/01/02 02:26:17;;;;;;;13.13;11.80;;;5.50;43.80;;;;;;5012049;28;20411;-66
2021/01/02 02:28:46;;;;;;;15.30;13.80;;;5.30;44.40;;;;;;5011859;28;20466;-66
2021/01/02 02:31:15;;;;;;;15.03;12.50;;;5.00;45.40;;;;;;5010395;28;20428;-66
2021/01/02 02:33:59;;;;;;;16.60;13.07;;;5.00;46.00;;;;;;5012004;28;20533;-66
2021/01/02 02:36:27;;;;;;;15.53;13.43;;;5.20;44.90;;;;;;5011728;28;20402;-66
2021/01/02 02:38:53;;;;;;;15.33;13.60;;;5.10;45.50;;;;;;5011761;28;20562;-66
2021/01/02 02:41:23;;;;;;;15.67;12.87;;;5.40;46.10;;;;;;5011922;28;20435;-66
2021/01/02 02:43:53;;;;;;;14.47;12.97;;;5.40;44.60;;;;;;5011717;28;20525;-66
2021/01/02 02:46:20;;;;;;;17.50;13.30;;;5.60;45.30;;;;;;5011772;28;20460;-66
2021/01/02 02:48:47;;;;;;;15.10;13.47;;;5.70;44.10;;;;;;5011605;28;20456;-66
2021/01/02 02:51:15;;;;;;;14.43;13.03;;;5.80;44.00;;;;;;5011425;28;20978;-66
2021/01/02 02:53:41;;;;;;;13.97;12.67;;;5.90;43.20;;;;;;5011735;28;20447;-66
2021/01/02 02:56:06;;;;;;;13.27;12.00;;;5.90;43.00;;;;;;5011700;28;20405;-67
2021/01/02 02:58:32;;;;;;;14.13;12.63;;;6.00;42.60;;;;;;5011548;28;20529;-66
2021/01/02 03:00:57;;;;;;;14.90;13.50;;;6.00;42.70;;;;;;5011613;28;20187;-66
2021/01/02 03:03:23;;;;;;;15.77;13.80;;;6.00;43.10;;;;;;5011448;28;20181;-66
2021/01/02 03:05:52;;;;;;;14.37;12.80;;;6.00;43.50;;;;;;5011237;28;20363;-66
2021/01/02 03:08:18;;;;;;;15.00;13.10;;;5.90;43.40;;;;;;5011214;28;20195;-66
2021/01/02 03:10:45;;;;;;;17.40;14.30;;;5.80;44.00;;;;;;5011298;28;20406;-66
2021/01/02 03:13:10;;;;;;;17.67;14.50;;;5.80;43.20;;;;;;5011037;28;20413;-66
2021/01/02 03:15:42;;;;;;;15.03;13.53;;;5.80;44.50;;;;;;5011160;28;20943;-67
2021/01/02 03:18:08;;;;;;;16.00;13.77;;;5.80;44.10;;;;;;5011286;28;20175;-66
2021/01/02 03:20:34;;;;;;;17.03;14.23;;;5.70;44.50;;;;;;5010938;28;20507;-66
2021/01/02 03:22:59;;;;;;;15.13;13.40;;;5.70;44.70;;;;;;5011049;28;20511;-67
2021/01/02 03:25:25;;;;;;;13.77;12.30;;;5.80;44.80;;;;;;5011148;28;20211;-67
2021/01/02 03:27:54;;;;;;;15.50;13.83;;;5.70;45.20;;;;;;5010683;28;20730;-66
2021/01/02 03:30:21;;;;;;;15.10;13.53;;;5.60;44.10;;;;;;5010765;28;20208;-66
2021/01/02 03:32:47;;;;;;;16.60;14.90;;;5.60;45.30;;;;;;5010801;28;20834;-66
2021/01/02 03:35:15;;;;;;;15.27;13.77;;;5.60;45.30;;;;;;5010545;28;20436;-66
2021/01/02 03:37:44;;;;;;;14.70;12.90;;;5.70;43.80;;;;;;5010680;28;20218;-66
2021/01/02 03:40:11;;;;;;;16.03;14.40;;;5.70;44.00;;;;;;5010847;28;20431;-66
2021/01/02 03:42:42;;;;;;;14.60;13.20;;;5.80;44.00;;;;;;5009675;28;20758;-66
2021/01/02 03:45:10;;;;;;;15.97;13.53;;;5.80;43.40;;;;;;5010982;28;20524;-66
2021/01/02 03:47:36;;;;;;;16.27;14.57;;;5.90;43.60;;;;;;5010535;28;20511;-66
2021/01/02 03:50:06;;;;;;;16.03;14.27;;;5.90;43.70;;;;;;5010491;28;20463;-66
2021/01/02 03:52:35;;;;;;;14.47;12.97;;;5.80;43.30;;;;;;5010541;28;20558;-66
2021/01/02 03:55:00;;;;;;;14.70;13.30;;;5.80;43.60;;;;;;5010489;28;20444;-67
2021/01/02 03:57:26;;;;;;;16.57;14.13;;;5.90;43.60;;;;;;5010156;28;20449;-66
2021/01/02 03:59:52;;;;;;;14.20;12.80;;;5.90;43.20;;;;;;5010117;28;20648;-66
2021/01/02 04:02:17;;;;;;;15.70;14.17;;;5.90;43.80;;;;;;5010423;28;20231;-66
2021/01/02 04:04:42;;;;;;;15.87;14.20;;;5.80;44.10;;;;;;5010322;28;20616;-66
2021/01/02 04:07:08;;;;;;;15.43;13.83;;;5.90;44.20;;;;;;5010106;28;20176;-66
2021/01/02 04:09:33;;;;;;;14.23;12.90;;;5.90;43.70;;;;;;5010218;28;20215;-66
2021/01/02 04:11:59;;;;;;;14.97;13.60;;;5.90;43.30;;;;;;5009916;28;20517;-66
2021/01/02 04:14:24;;;;;;;15.53;14.03;;;5.90;45.20;;;;;;5009970;28;20630;-66
2021/01/02 04:16:50;;;;;;;14.40;12.97;;;5.90;43.70;;;;;;5010183;28;20180;-66
2021/01/02 04:19:15;;;;;;;14.90;13.43;;;6.00;44.00;;;;;;5009936;28;20271;-66
2021/01/02 04:21:44;;;;;;;15.03;13.60;;;5.90;43.30;;;;;;5010089;28;20185;-66
2021/01/02 04:24:10;;;;;;;14.80;13.40;;;6.00;43.10;;;;;;5009930;28;20216;-66
2021/01/02 04:26:35;;;;;;;15.80;14.20;;;5.90;43.30;;;;;;5009775;28;20437;-66
2021/01/02 04:29:01;;;;;;;12.87;11.67;;;5.80;43.90;;;;;;5009414;28;20303;-66
2021/01/02 04:31:38;;;;;;;14.93;13.43;;;5.80;44.10;;;;;;5010098;28;20181;-66
2021/01/02 04:34:05;;;;;;;13.90;12.50;;;5.80;43.10;;;;;;5009707;28;20223;-66
2021/01/02 04:36:31;;;;;;;14.20;12.90;;;5.80;43.70;;;;;;5009862;28;20439;-66
2021/01/02 04:38:57;;;;;;;13.70;12.30;;;5.60;43.80;;;;;;5009780;28;20493;-66
2021/01/02 04:41:23;;;;;;;13.37;12.03;;;5.70;44.00;;;;;;5009885;28;20448;-66
2021/01/02 04:43:50;;;;;;;14.53;13.13;;;5.70;43.30;;;;;;5009575;28;20470;-66
2021/01/02 04:46:16;;;;;;;13.23;12.03;;;5.80;43.60;;;;;;5009750;28;20539;-66
2021/01/02 04:48:45;;;;;;;13.63;12.33;;;5.80;43.80;;;;;;5009134;28;20485;-66
2021/01/02 04:51:12;;;;;;;12.13;10.90;;;5.70;43.90;;;;;;5009633;28;20496;-66
2021/01/02 04:53:38;;;;;;;13.10;11.90;;;5.70;43.20;;;;;;5009431;28;20491;-66
2021/01/02 04:56:05;;;;;;;13.57;12.17;;;5.40;42.90;;;;;;5009176;28;20407;-66
2021/01/02 04:58:32;;;;;;;14.33;12.00;;;5.40;43.70;;;;;;5009486;28;20173;-67
2021/01/02 05:00:57;;;;;;;13.27;11.90;;;5.20;44.50;;;;;;5009527;28;20419;-66
2021/01/02 05:03:23;;;;;;;14.13;12.73;;;5.30;44.30;;;;;;5009085;28;20554;-66
2021/01/02 05:05:50;;;;;;;14.20;12.80;;;5.60;44.70;;;;;;5009455;28;20619;-66
2021/01/02 05:08:15;;;;;;;13.93;12.63;;;5.60;45.30;;;;;;5009189;28;20411;-66
2021/01/02 05:10:41;;;;;;;13.90;12.50;;;5.50;43.90;;;;;;5008960;28;20410;-66
2021/01/02 05:13:15;;;;;;;14.27;12.80;;;5.50;44.90;;;;;;5009311;28;20587;-66
2021/01/02 05:15:41;;;;;;;13.30;12.00;;;5.50;43.80;;;;;;5009574;28;20242;-66
2021/01/02 05:18:06;;;;;;;12.77;11.53;;;5.50;43.60;;;;;;5008927;28;20544;-66
2021/01/02 05:20:32;;;;;;;13.80;12.40;;;5.40;44.60;;;;;;5009325;28;20923;-66
2021/01/02 05:23:08;;;;;;;14.47;12.83;;;5.40;44.20;;;;;;5009284;28;20188;-66
2021/01/02 05:25:35;;;;;;;13.60;12.20;;;5.30;44.60;;;;;;5008833;28;20513;-66
2021/01/02 05:28:00;;;;;;;15.37;13.67;;;5.10;44.80;;;;;;5009183;28;20424;-67
2021/01/02 05:30:32;;;;;;;13.20;11.90;;;5.20;44.50;;;;;;5009272;28;20463;-66
2021/01/02 05:33:05;;;;;;;14.03;12.53;;;5.70;44.00;;;;;;5009125;28;20641;-66
2021/01/02 05:35:35;;;;;;;15.83;14.20;;;5.50;43.70;;;;;;5009137;28;20432;-66
2021/01/02 05:38:25;;;;;;;15.50;12.90;;;5.50;44.10;;;;;;5008995;28;20965;-66
2021/01/02 05:40:55;;;;;;;17.00;15.20;;;5.40;44.20;;;;;;5008814;28;20408;-66
2021/01/02 05:43:23;;;;;;;14.73;13.13;;;5.70;44.00;;;;;;5009081;28;20411;-66
2021/01/02 05:45:50;;;;;;;16.00;13.83;;;5.70;44.00;;;;;;5009061;28;20554;-66
2021/01/02 05:48:24;;;;;;;15.30;13.70;;;5.50;43.30;;;;;;5008844;28;20441;-67
2021/01/02 05:50:54;;;;;;;14.93;13.37;;;5.60;44.20;;;;;;5009021;28;20409;-66
2021/01/02 05:53:34;;;;;;;14.97;13.40;;;5.60;44.10;;;;;;5008834;28;20417;-66
2021/01/02 05:56:10;;;;;;;16.00;13.97;;;5.60;43.40;;;;;;5008835;28;20413;-66
2021/01/02 05:58:39;;;;;;;17.53;15.53;;;5.40;43.40;;;;;;5008710;28;20440;-66
2021/01/02 06:01:13;;;;;;;15.50;13.90;;;5.30;44.00;;;;;;5008816;28;20760;-66
2021/01/02 06:03:40;;;;;;;19.63;15.03;;;5.40;43.70;;;;;;5008827;28;20436;-66
2021/01/02 06:06:11;;;;;;;21.00;13.80;;;5.40;44.80;;;;;;5009911;28;20403;-66
2021/01/02 06:08:44;;;;;;;16.43;14.70;;;5.60;45.20;;;;;;5012282;28;20467;-66
2021/01/02 06:11:18;;;;;;;15.87;14.03;;;5.50;43.70;;;;;;5012101;28;20484;-67
2021/01/02 06:13:45;;;;;;;18.63;15.30;;;5.60;44.00;;;;;;5012637;28;20430;-67
2021/01/02 06:16:12;;;;;;;18.77;15.40;;;5.50;43.80;;;;;;5012635;28;20474;-67
2021/01/02 06:18:42;;;;;;;16.93;14.73;;;5.40;43.90;;;;;;5011896;28;20561;-66
2021/01/02 06:21:13;;;;;;;18.23;14.77;;;5.50;44.50;;;;;;5012404;28;20420;-66
2021/01/02 06:23:40;;;;;;;23.27;16.87;;;5.70;43.70;;;;;;5011940;28;20481;-67
2021/01/02 06:26:09;;;;;;;22.33;16.27;;;5.80;44.20;;;;;;5012207;28;20424;-66
2021/01/02 06:28:36;;;;;;;26.70;18.20;;;5.80;44.10;;;;;;5011895;28;20452;-67
2021/01/02 06:31:06;;;;;;;23.83;17.77;;;5.80;45.20;;;;;;5012315;28;20467;-66
2021/01/02 06:33:32;;;;;;;27.20;17.90;;;5.70;45.60;;;;;;5011795;28;20832;-66
2021/01/02 06:35:58;;;;;;;23.40;18.30;;;5.60;46.90;;;;;;5011770;28;20463;-66
2021/01/02 06:38:25;;;;;;;23.80;16.53;;;5.70;46.40;;;;;;5011832;28;20416;-66
2021/01/02 06:40:53;;;;;;;19.10;15.33;;;5.70;44.80;;;;;;5011754;28;20422;-66
2021/01/02 06:43:39;;;;;;;17.73;14.70;;;5.80;44.50;;;;;;5011757;28;20417;-66
2021/01/02 06:46:05;;;;;;;17.60;14.50;;;5.80;44.10;;;;;;5012030;28;20473;-66
2021/01/02 06:48:32;;;;;;;19.73;14.90;;;5.90;45.00;;;;;;5011134;28;22731;-66
2021/01/02 06:51:00;;;;;;;20.40;15.53;;;5.80;43.60;;;;;;5011771;28;20191;-66
2021/01/02 06:53:35;;;;;;;18.63;15.73;;;5.90;43.90;;;;;;5011615;28;20463;-67
2021/01/02 06:56:09;;;;;;;19.97;15.37;;;5.80;43.70;;;;;;5011749;28;20422;-66
2021/01/02 06:58:48;;;;;;;32.47;21.80;;;5.90;43.70;;;;;;5011402;28;20412;-66
2021/01/02 07:01:17;;;;;;;21.03;16.43;;;5.90;44.70;;;;;;5011481;28;20416;-66
2021/01/02 07:03:48;;;;;;;20.40;15.77;;;5.70;44.50;;;;;;5011147;28;20508;-66
2021/01/02 07:06:26;;;;;;;19.50;16.00;;;5.70;44.10;;;;;;5011484;28;20427;-66
2021/01/02 07:08:57;;;;;;;21.97;16.63;;;5.50;45.70;;;;;;5010544;28;20459;-66
2021/01/02 07:11:33;;;;;;;21.37;15.90;;;5.70;44.70;;;;;;5011210;28;20437;-66
2021/01/02 07:14:17;;;;;;;23.33;16.80;;;5.80;44.40;;;;;;5011360;28;20431;-66
2021/01/02 07:17:01;;;;;;;22.43;16.10;;;5.70;45.20;;;;;;5010615;28;20495;-66
2021/01/02 07:19:39;;;;;;;23.03;15.73;;;5.60;44.70;;;;;;5010728;28;20487;-67
2021/01/02 07:22:06;;;;;;;22.20;15.90;;;5.40;45.00;;;;;;5011166;28;20412;-66
2021/01/02 07:24:42;;;;;;;26.50;17.50;;;5.20;46.40;;;;;;5010625;28;21133;-65
2021/01/02 07:27:21;;;;;;;19.50;15.10;;;5.40;46.20;;;;;;5010779;28;20407;-65
2021/01/02 07:29:50;;;;;;;20.57;14.77;;;5.70;46.10;;;;;;5010964;28;20497;-65
2021/01/02 07:32:19;;;;;;;20.27;14.80;;;5.80;45.00;;;;;;5010699;28;20514;-66
2021/01/02 07:34:50;;;;;;;19.73;16.10;;;5.80;43.70;;;;;;5010886;28;20944;-66
2021/01/02 07:37:27;;;;;;;21.00;16.60;;;5.80;44.30;;;;;;5010836;28;20416;-65
2021/01/02 07:39:59;;;;;;;19.00;15.37;;;5.80;44.00;;;;;;5010407;28;20794;-66
2021/01/02 07:42:29;;;;;;;22.07;16.37;;;5.80;43.50;;;;;;5010779;28;20871;-66
2021/01/02 07:45:10;;;;;;;20.47;16.40;;;6.00;43.70;;;;;;5010453;28;20447;-66
2021/01/02 07:47:37;;;;;;;25.03;17.43;;;6.00;43.10;;;;;;5004165;28;20425;-66
2021/01/02 07:50:09;;;;;;;22.73;15.67;;;6.00;43.10;;;;;;5009680;28;20460;-67
2021/01/02 07:52:35;;;;;;;21.00;15.77;;;6.00;43.40;;;;;;5009240;28;21128;-65
2021/01/02 07:55:08;;;;;;;20.37;16.30;;;5.90;43.70;;;;;;5008544;28;20767;-66
2021/01/02 07:57:34;;;;;;;24.63;16.87;;;5.80;44.50;;;;;;5009264;28;20567;-66
2021/01/02 07:59:59;;;;;;;23.60;17.73;;;6.00;43.80;;;;;;5008982;28;20927;-66
2021/01/02 08:02:26;;;;;;;25.77;17.27;;;6.00;43.80;;;;;;5010431;28;20187;-66
2021/01/02 08:04:53;;;;;;;20.37;16.43;;;5.90;44.90;;;;;;5010356;28;20200;-66
2021/01/02 08:07:19;;;;;;;24.20;16.50;;;6.00;43.40;;;;;;5010265;28;20410;-66
2021/01/02 08:09:46;;;;;;;20.30;15.90;;;5.80;43.40;;;;;;5009929;28;20490;-66
2021/01/02 08:12:13;;;;;;;21.57;16.97;;;6.00;44.20;;;;;;5010220;28;21017;-66
2021/01/02 08:14:47;;;;;;;24.77;16.23;;;6.00;43.40;;;;;;5010510;28;20439;-66
2021/01/02 08:17:15;;;;;;;20.57;14.73;;;6.10;43.20;;;;;;5008642;28;20420;-67
2021/01/02 08:19:46;;;;;;;28.90;18.20;;;6.00;43.30;;;;;;5010287;28;20418;-66
2021/01/02 08:22:13;;;;;;;23.30;15.77;;;6.10;43.00;;;;;;5010176;28;20522;-67
2021/01/02 08:24:42;;;;;;;19.90;15.90;;;6.00;43.10;;;;;;5009729;28;20492;-66
2021/01/02 08:27:07;;;;;;;22.53;15.80;;;6.10;42.60;;;;;;5010004;28;20816;-67
2021/01/02 08:29:34;;;;;;;24.77;17.40;;;6.10;43.00;;;;;;5009602;28;20478;-66
2021/01/02 08:32:08;;;;;;;26.47;18.37;;;6.00;42.90;;;;;;5009725;28;20591;-66
2021/01/02 08:34:34;;;;;;;18.13;16.00;;;6.00;44.10;;;;;;5010048;28;20457;-66
2021/01/02 08:37:02;;;;;;;21.80;16.07;;;6.20;43.40;;;;;;5009918;28;20427;-66
2021/01/02 08:39:27;;;;;;;23.33;17.67;;;6.30;43.40;;;;;;5009528;28;20452;-66
2021/01/02 08:41:57;;;;;;;21.33;15.83;;;6.30;43.80;;;;;;5010357;28;20457;-66
2021/01/02 08:44:31;;;;;;;15.60;12.67;;;6.20;43.60;;;;;;5010131;28;20659;-67
2021/01/02 08:46:57;;;;;;;18.53;13.60;;;10.70;72.80;;;;;;5009653;28;20443;-67
2021/01/02 08:49:30;;;;;;;19.20;14.67;;;12.30;49.20;;;;;;5009539;28;20472;-65
2021/01/02 08:52:22;;;;;;;16.97;15.03;;;13.00;39.70;;;;;;5009786;28;20471;-66
2021/01/02 08:55:11;;;;;;;15.90;13.07;;;12.00;39.90;;;;;;5009369;28;21062;-65
2021/01/02 08:57:47;;;;;;;16.13;13.40;;;13.40;38.80;;;;;;5009482;28;20427;-65
2021/01/02 09:00:18;;;;;;;20.03;17.40;;;14.10;35.00;;;;;;5009709;28;20408;-66
2021/01/02 09:02:49;;;;;;;22.27;18.77;;;12.80;26.20;;;;;;5009886;28;20546;-66
2021/01/02 09:05:26;;;;;;;18.47;16.57;;;10.60;29.40;;;;;;5009626;28;20439;-66
2021/01/02 09:07:53;;;;;;;24.23;17.03;;;9.20;32.80;;;;;;5009304;28;20574;-66
2021/01/02 09:10:23;;;;;;;20.00;15.83;;;8.30;35.70;;;;;;5009419;28;20539;-66
2021/01/02 09:13:10;;;;;;;18.67;16.67;;;8.00;36.90;;;;;;5009520;28;20413;-66
2021/01/02 09:15:51;;;;;;;18.73;15.00;;;7.60;37.50;;;;;;5009299;28;20770;-66
2021/01/02 09:18:32;;;;;;;19.83;15.53;;;7.30;38.90;;;;;;5009530;28;20404;-66
2021/01/02 09:21:06;;;;;;;17.80;15.00;;;7.20;39.00;;;;;;5009409;28;20427;-66
2021/01/02 09:23:41;;;;;;;23.07;17.73;;;6.90;40.10;;;;;;5009068;28;20778;-66
2021/01/02 09:26:31;;;;;;;20.70;15.70;;;6.70;40.40;;;;;;5009461;28;20764;-66
2021/01/02 09:28:58;;;;;;;20.43;15.20;;;6.80;41.20;;;;;;5009161;28;20474;-66
2021/01/02 09:31:25;;;;;;;17.97;14.73;;;6.60;41.00;;;;;;5009306;28;20412;-66
2021/01/02 09:33:51;;;;;;;19.33;16.50;;;6.50;41.60;;;;;;5009306;28;20518;-66
2021/01/02 09:36:19;;;;;;;15.13;13.53;;;6.50;41.40;;;;;;5008095;28;20412;-65
2021/01/02 09:38:45;;;;;;;20.90;15.87;;;6.50;41.30;;;;;;5009074;28;20411;-65
2021/01/02 09:41:13;;;;;;;16.53;13.80;;;6.40;41.30;;;;;;5010597;28;20453;-66
2021/01/02 09:43:41;;;;;;;16.97;14.50;;;6.20;42.00;;;;;;5012654;28;20903;-65
2021/01/02 09:46:08;;;;;;;17.27;14.80;;;6.20;42.50;;;;;;5012960;28;20581;-66
2021/01/02 09:48:33;;;;;;;14.53;12.80;;;6.10;41.90;;;;;;5012568;28;20468;-66
2021/01/02 09:50:59;;;;;;;17.60;15.00;;;6.10;42.20;;;;;;5013128;28;20412;-66
2021/01/02 09:53:24;;;;;;;18.80;14.40;;;6.20;42.40;;;;;;5012653;28;20535;-66
2021/01/02 09:55:50;;;;;;;16.27;14.47;;;6.20;41.90;;;;;;5013036;28;20184;-66
2021/01/02 09:58:15;;;;;;;18.47;14.63;;;6.30;42.60;;;;;;5012266;28;20847;-66
2021/01/02 10:00:41;;;;;;;16.43;14.73;;;6.30;42.50;;;;;;5012755;28;20254;-66
2021/01/02 10:03:10;;;;;;;16.27;13.80;;;6.20;43.20;;;;;;5012932;28;20636;-66
2021/01/02 10:05:37;;;;;;;15.67;13.33;;;6.30;42.50;;;;;;5012708;28;20196;-66
2021/01/02 10:08:03;;;;;;;16.13;14.07;;;6.30;41.90;;;;;;5012356;28;20430;-67
2021/01/02 10:10:29;;;;;;;16.20;14.07;;;6.40;42.80;;;;;;5012683;28;20467;-66
2021/01/02 10:12:55;;;;;;;18.80;16.27;;;6.50;42.20;;;;;;5012554;28;20433;-68
2021/01/02 10:15:20;;;;;;;15.70;13.30;;;6.40;41.90;;;;;;5012320;28;20189;-67
2021/01/02 10:17:46;;;;;;;15.10;12.20;;;6.30;40.40;;;;;;5012331;28;20435;-67
2021/01/02 10:20:12;;;;;;;14.50;12.90;;;6.10;42.20;;;;;;5012668;28;20195;-67
2021/01/02 10:22:38;;;;;;;14.40;12.90;;;6.20;43.30;;;;;;5012299;28;20173;-67
2021/01/02 10:25:05;;;;;;;18.37;13.77;;;6.30;42.00;;;;;;5012133;28;20505;-67
2021/01/02 10:27:31;;;;;;;14.97;13.37;;;6.20;42.30;;;;;;5012281;28;20672;-67
2021/01/02 10:29:56;;;;;;;19.07;15.00;;;6.00;41.90;;;;;;5011948;28;20451;-67
2021/01/02 10:32:24;;;;;;;16.93;13.30;;;6.10;42.20;;;;;;5012303;28;20173;-67
2021/01/02 10:34:50;;;;;;;15.50;13.20;;;6.00;42.30;;;;;;5019689;28;20211;-67
2021/01/02 10:37:23;;;;;;;15.63;12.23;;;6.10;41.70;;;;;;5015587;28;20787;-67
2021/01/02 10:39:49;;;;;;;13.93;12.43;;;5.90;41.80;;;;;;5012043;28;20411;-67
2021/01/02 10:42:16;;;;;;;14.77;12.90;;;5.90;41.50;;;;;;5012016;28;20419;-67
2021/01/02 10:44:46;;;;;;;17.30;12.77;;;6.10;42.40;;;;;;5011718;28;20527;-67
2021/01/02 10:47:15;;;;;;;15.20;12.90;;;6.20;41.10;;;;;;5011603;28;20415;-67
2021/01/02 10:49:41;;;;;;;14.80;13.00;;;6.30;41.00;;;;;;5011787;28;20966;-68
2021/01/02 10:52:06;;;;;;;16.30;12.67;;;6.20;40.50;;;;;;5011364;28;20419;-67
2021/01/02 10:54:32;;;;;;;14.57;12.57;;;6.20;41.00;;;;;;5011675;28;20693;-66
2021/01/02 10:56:58;;;;;;;16.30;14.60;;;6.30;40.40;;;;;;5011997;28;20183;-67
2021/01/02 10:59:24;;;;;;;12.90;11.53;;;6.30;40.30;;;;;;5011609;28;20453;-66
2021/01/02 11:01:52;;;;;;;14.33;12.37;;;6.30;40.90;;;;;;5011763;28;20412;-66
2021/01/02 11:04:19;;;;;;;13.60;12.13;;;6.30;40.20;;;;;;5011900;28;20196;-65
2021/01/02 11:06:48;;;;;;;14.30;12.23;;;6.30;40.50;;;;;;5011624;28;20555;-66
2021/01/02 11:09:14;;;;;;;15.13;13.53;;;6.20;41.00;;;;;;5011367;28;20997;-66
2021/01/02 11:11:41;;;;;;;16.60;12.73;;;6.20;41.60;;;;;;5011738;28;20408;-66
2021/01/02 11:14:07;;;;;;;14.23;12.53;;;6.20;41.70;;;;;;5011392;28;20428;-66
2021/01/02 11:16:42;;;;;;;13.37;11.97;;;6.20;40.20;;;;;;5011763;28;20473;-67
2021/01/02 11:19:21;;;;;;;12.73;11.43;;;6.30;39.80;;;;;;5011452;28;20441;-67
2021/01/02 11:21:48;;;;;;;16.30;12.90;;;6.30;39.70;;;;;;5011622;28;20439;-67
2021/01/02 11:24:17;;;;;;;14.60;12.70;;;6.40;40.30;;;;;;5011367;28;20881;-68
2021/01/02 11:26:51;;;;;;;13.63;11.90;;;6.50;39.70;;;;;;5011368;28;20415;-67
2021/01/02 11:29:19;;;;;;;18.33;13.37;;;6.40;39.60;;;;;;5010890;28;20498;-67
2021/01/02 11:31:45;;;;;;;13.60;11.60;;;6.50;39.70;;;;;;5011500;28;20915;-66
2021/01/02 11:34:11;;;;;;;17.50;13.17;;;6.40;39.60;;;;;;5011264;28;20805;-66
2021/01/02 11:36:37;;;;;;;13.90;12.50;;;6.40;39.60;;;;;;5010932;28;20411;-67
2021/01/02 11:39:04;;;;;;;14.20;12.70;;;6.50;39.70;;;;;;5010868;28;20918;-66
2021/01/02 11:41:33;;;;;;;14.57;13.07;;;6.40;39.60;;;;;;5010941;28;20661;-67
2021/01/02 11:43:59;;;;;;;14.90;12.77;;;6.30;40.10;;;;;;5010651;28;20435;-67
2021/01/02 11:46:33;;;;;;;17.33;12.80;;;6.30;39.70;;;;;;5010873;28;20422;-67
2021/01/02 11:48:58;;;;;;;13.90;11.80;;;6.30;40.20;;;;;;5010063;28;20217;-66
2021/01/02 11:51:25;;;;;;;15.70;13.63;;;6.30;40.40;;;;;;5010776;28;20411;-66
2021/01/02 11:53:51;;;;;;;13.00;11.60;;;6.30;39.60;;;;;;5010937;28;20192;-67
2021/01/02 11:56:22;;;;;;;15.43;12.50;;;6.20;40.50;;;;;;5010874;28;20414;-66
2021/01/02 11:58:52;;;;;;;14.30;12.40;;;6.20;40.10;;;;;;5010244;28;20423;-66
2021/01/02 12:01:19;;;;;;;13.80;12.33;;;6.00;40.70;;;;;;5011037;28;20415;-67
2021/01/02 12:03:45;;;;;;;14.50;12.93;;;6.30;40.40;;;;;;5009793;28;20428;-66
2021/01/02 12:06:11;;;;;;;15.87;13.70;;;6.20;40.30;;;;;;5008984;28;20514;-66
2021/01/02 12:08:36;;;;;;;15.33;13.13;;;6.10;40.90;;;;;;5010270;28;20490;-65
2021/01/02 12:11:02;;;;;;;15.73;13.57;;;6.20;40.60;;;;;;5010335;28;20507;-65
2021/01/02 12:13:28;;;;;;;14.73;13.13;;;6.30;40.60;;;;;;5009952;28;20169;-66
2021/01/02 12:15:53;;;;;;;17.73;14.80;;;6.30;41.10;;;;;;5010164;28;20516;-66
2021/01/02 12:18:19;;;;;;;14.87;13.37;;;6.30;40.50;;;;;;5010031;28;20260;-66
2021/01/02 12:20:49;;;;;;;16.47;13.43;;;6.40;39.90;;;;;;5009985;28;20179;-65
2021/01/02 12:23:15;;;;;;;15.30;13.40;;;6.40;39.80;;;;;;5010349;28;20404;-67
2021/01/02 12:25:40;;;;;;;17.20;13.40;;;6.20;39.90;;;;;;5009863;28;20462;-67
2021/01/02 12:28:06;;;;;;;12.80;11.50;;;6.20;40.40;;;;;;5009611;28;20179;-66
2021/01/02 12:30:31;;;;;;;13.47;12.07;;;6.10;40.80;;;;;;5010149;28;20203;-67
2021/01/02 12:32:58;;;;;;;15.43;13.80;;;6.10;41.00;;;;;;5009994;28;20171;-64
2021/01/02 12:35:24;;;;;;;16.53;13.30;;;6.30;42.00;;;;;;5009763;28;20278;-64
2021/01/02 12:37:50;;;;;;;18.40;15.27;;;6.40;40.30;;;;;;5009685;28;20719;-66
2021/01/02 12:40:16;;;;;;;14.60;12.70;;;6.40;40.30;;;;;;5009917;28;21098;-64
2021/01/02 12:42:42;;;;;;;16.63;14.10;;;6.30;39.60;;;;;;5009319;28;20179;-66
2021/01/02 12:45:09;;;;;;;16.10;13.30;;;6.20;40.10;;;;;;5009648;28;20499;-66
2021/01/02 12:47:35;;;;;;;14.77;13.30;;;6.40;40.50;;;;;;5009479;28;20233;-65
2021/01/02 12:50:00;;;;;;;16.50;14.37;;;6.40;40.20;;;;;;5009636;28;20459;-65
2021/01/02 12:52:29;;;;;;;16.10;13.00;;;6.40;40.60;;;;;;5009553;28;20653;-65
2021/01/02 12:54:55;;;;;;;14.57;12.87;;;6.30;40.50;;;;;;5009554;28;20567;-65